sensor_id;sensor_type;location;lat;lon;timestamp;P1;durP1;ratioP1;P2;durP2;ratioP2
62024;SDS011;47978;49.118;12.146;2022-11-04T00:01:40;12.90;;;8.95;;
62024;SDS011;47978;49.118;12.146;2022-11-04T00:04:08;15.77;;;8.68;;
62024;SDS011;47978;49.118;12.146;2022-11-04T00:06:36;14.10;;;8.80;;
62024;SDS011;47978;49.118;12.146;2022-11-04T00:09:04;12.65;;;9.27;;
62024;SDS011;47978;49.118;12.146;2022-11-04T00:11:31;12.88;;;8.55;;
62024;SDS011;47978;49.118;12.146;2022-11-04T00:13:58;13.15;;;8.68;;
62024;SDS011;47978;49.118;12.146;2022-11-04T00:16:26;13.45;;;8.40;;
62024;SDS011;47978;49.118;12.146;2022-11-04T00:18:53;13.88;;;8.25;;
62024;SDS011;47978;49.118;12.146;2022-11-04T00:21:19;12.60;;;8.45;;
62024;SDS011;47978;49.118;12.146;2022-11-04T00:23:46;10.20;;;7.72;;
62024;SDS011;47978;49.118;12.146;2022-11-04T00:26:12;11.90;;;8.43;;
62024;SDS011;47978;49.118;12.146;2022-11-04T00:28:39;13.18;;;8.40;;
62024;SDS011;47978;49.118;12.146;2022-11-04T00:31:06;13.45;;;9.25;;
62024;SDS011;47978;49.118;12.146;2022-11-04T00:33:35;13.70;;;9.60;;
62024;SDS011;47978;49.118;12.146;2022-11-04T00:36:01;17.00;;;10.02;;
62024;SDS011;47978;49.118;12.146;2022-11-04T00:38:28;14.95;;;10.15;;
62024;SDS011;47978;49.118;12.146;2022-11-04T00:40:55;15.35;;;10.20;;
62024;SDS011;47978;49.118;12.146;2022-11-04T00:43:22;15.60;;;9.57;;
62024;SDS011;47978;49.118;12.146;2022-11-04T00:45:48;17.50;;;9.70;;
62024;SDS011;47978;49.118;12.146;2022-11-04T00:48:15;14.20;;;8.80;;
62024;SDS011;47978;49.118;12.146;2022-11-04T00:50:43;16.02;;;9.50;;
62024;SDS011;47978;49.118;12.146;2022-11-04T00:53:09;12.48;;;8.55;;
62024;SDS011;47978;49.118;12.146;2022-11-04T00:55:36;14.63;;;9.27;;
62024;SDS011;47978;49.118;12.146;2022-11-04T00:58:03;14.35;;;9.15;;
62024;SDS011;47978;49.118;12.146;2022-11-04T01:00:29;20.60;;;8.93;;
62024;SDS011;47978;49.118;12.146;2022-11-04T01:02:56;15.48;;;10.25;;
62024;SDS011;47978;49.118;12.146;2022-11-04T01:05:23;15.05;;;10.45;;
62024;SDS011;47978;49.118;12.146;2022-11-04T01:07:50;15.50;;;9.65;;
62024;SDS011;47978;49.118;12.146;2022-11-04T01:10:17;15.63;;;10.20;;
62024;SDS011;47978;49.118;12.146;2022-11-04T01:12:44;14.93;;;9.50;;
62024;SDS011;47978;49.118;12.146;2022-11-04T01:15:10;16.48;;;9.85;;
62024;SDS011;47978;49.118;12.146;2022-11-04T01:17:37;15.57;;;10.50;;
62024;SDS011;47978;49.118;12.146;2022-11-04T01:20:03;15.82;;;8.57;;
62024;SDS011;47978;49.118;12.146;2022-11-04T01:22:30;15.00;;;8.55;;
62024;SDS011;47978;49.118;12.146;2022-11-04T01:24:58;14.18;;;7.75;;
62024;SDS011;47978;49.118;12.146;2022-11-04T01:27:25;13.93;;;7.93;;
62024;SDS011;47978;49.118;12.146;2022-11-04T01:29:51;11.40;;;7.40;;
62024;SDS011;47978;49.118;12.146;2022-11-04T01:32:18;13.15;;;8.25;;
62024;SDS011;47978;49.118;12.146;2022-11-04T01:34:45;10.23;;;7.45;;
62024;SDS011;47978;49.118;12.146;2022-11-04T01:37:11;12.75;;;6.88;;
62024;SDS011;47978;49.118;12.146;2022-11-04T01:39:38;10.75;;;7.20;;
62024;SDS011;47978;49.118;12.146;2022-11-04T01:42:08;15.38;;;8.73;;
62024;SDS011;47978;49.118;12.146;2022-11-04T01:44:48;13.13;;;8.20;;
62024;SDS011;47978;49.118;12.146;2022-11-04T01:47:16;22.25;;;8.82;;
62024;SDS011;47978;49.118;12.146;2022-11-04T01:49:46;11.32;;;7.97;;
62024;SDS011;47978;49.118;12.146;2022-11-04T01:52:17;12.77;;;8.18;;
62024;SDS011;47978;49.118;12.146;2022-11-04T01:54:49;12.88;;;7.88;;
62024;SDS011;47978;49.118;12.146;2022-11-04T01:57:19;11.73;;;6.80;;
62024;SDS011;47978;49.118;12.146;2022-11-04T01:59:50;12.02;;;7.78;;
62024;SDS011;47978;49.118;12.146;2022-11-04T02:02:17;14.35;;;6.88;;
62024;SDS011;47978;49.118;12.146;2022-11-04T02:04:44;10.00;;;6.47;;
62024;SDS011;47978;49.118;12.146;2022-11-04T02:07:11;14.45;;;7.40;;
62024;SDS011;47978;49.118;12.146;2022-11-04T02:09:38;13.20;;;8.82;;
62024;SDS011;47978;49.118;12.146;2022-11-04T02:12:06;17.45;;;10.60;;
62024;SDS011;47978;49.118;12.146;2022-11-04T02:14:34;18.13;;;11.23;;
62024;SDS011;47978;49.118;12.146;2022-11-04T02:17:04;18.75;;;11.50;;
62024;SDS011;47978;49.118;12.146;2022-11-04T02:19:52;20.50;;;12.02;;
62024;SDS011;47978;49.118;12.146;2022-11-04T02:22:30;16.38;;;9.98;;
62024;SDS011;47978;49.118;12.146;2022-11-04T02:25:19;12.65;;;9.15;;
62024;SDS011;47978;49.118;12.146;2022-11-04T02:28:06;12.68;;;8.48;;
62024;SDS011;47978;49.118;12.146;2022-11-04T02:30:47;15.90;;;10.45;;
62024;SDS011;47978;49.118;12.146;2022-11-04T02:33:18;16.13;;;9.77;;
62024;SDS011;47978;49.118;12.146;2022-11-04T02:35:51;13.13;;;8.77;;
62024;SDS011;47978;49.118;12.146;2022-11-04T02:38:28;18.30;;;10.48;;
62024;SDS011;47978;49.118;12.146;2022-11-04T02:40:59;20.60;;;10.82;;
62024;SDS011;47978;49.118;12.146;2022-11-04T02:43:35;19.35;;;10.02;;
62024;SDS011;47978;49.118;12.146;2022-11-04T02:46:11;17.33;;;10.32;;
62024;SDS011;47978;49.118;12.146;2022-11-04T02:48:45;16.52;;;11.00;;
62024;SDS011;47978;49.118;12.146;2022-11-04T02:51:16;19.17;;;11.20;;
62024;SDS011;47978;49.118;12.146;2022-11-04T02:53:47;15.48;;;10.40;;
62024;SDS011;47978;49.118;12.146;2022-11-04T02:56:20;17.83;;;11.35;;
62024;SDS011;47978;49.118;12.146;2022-11-04T02:58:50;17.67;;;10.90;;
62024;SDS011;47978;49.118;12.146;2022-11-04T03:01:22;17.85;;;10.98;;
62024;SDS011;47978;49.118;12.146;2022-11-04T03:06:23;17.20;;;9.63;;
62024;SDS011;47978;49.118;12.146;2022-11-04T03:08:52;14.48;;;10.05;;
62024;SDS011;47978;49.118;12.146;2022-11-04T03:11:20;16.75;;;10.15;;
62024;SDS011;47978;49.118;12.146;2022-11-04T03:13:50;15.63;;;9.65;;
62024;SDS011;47978;49.118;12.146;2022-11-04T03:16:24;17.30;;;9.80;;
62024;SDS011;47978;49.118;12.146;2022-11-04T03:21:24;17.55;;;11.07;;
62024;SDS011;47978;49.118;12.146;2022-11-04T03:23:53;19.85;;;10.07;;
62024;SDS011;47978;49.118;12.146;2022-11-04T03:26:22;16.15;;;9.18;;
62024;SDS011;47978;49.118;12.146;2022-11-04T03:28:55;17.52;;;10.07;;
62024;SDS011;47978;49.118;12.146;2022-11-04T03:31:36;18.75;;;9.82;;
62024;SDS011;47978;49.118;12.146;2022-11-04T03:34:09;14.90;;;9.95;;
62024;SDS011;47978;49.118;12.146;2022-11-04T03:36:35;16.77;;;10.30;;
62024;SDS011;47978;49.118;12.146;2022-11-04T03:39:02;18.88;;;10.00;;
62024;SDS011;47978;49.118;12.146;2022-11-04T03:41:30;14.80;;;9.63;;
62024;SDS011;47978;49.118;12.146;2022-11-04T03:43:59;16.13;;;9.40;;
62024;SDS011;47978;49.118;12.146;2022-11-04T03:46:26;11.88;;;7.93;;
62024;SDS011;47978;49.118;12.146;2022-11-04T03:48:54;15.80;;;10.90;;
62024;SDS011;47978;49.118;12.146;2022-11-04T03:51:21;15.30;;;9.95;;
62024;SDS011;47978;49.118;12.146;2022-11-04T03:53:48;13.77;;;8.93;;
62024;SDS011;47978;49.118;12.146;2022-11-04T03:59:17;12.43;;;7.60;;
62024;SDS011;47978;49.118;12.146;2022-11-04T04:02:02;9.45;;;6.22;;
62024;SDS011;47978;49.118;12.146;2022-11-04T04:04:37;10.10;;;5.38;;
62024;SDS011;47978;49.118;12.146;2022-11-04T04:07:10;8.82;;;4.80;;
62024;SDS011;47978;49.118;12.146;2022-11-04T04:09:41;10.07;;;4.80;;
62024;SDS011;47978;49.118;12.146;2022-11-04T04:12:12;9.32;;;4.53;;
62024;SDS011;47978;49.118;12.146;2022-11-04T04:14:43;19.55;;;10.35;;
62024;SDS011;47978;49.118;12.146;2022-11-04T04:17:16;77.30;;;26.70;;
62024;SDS011;47978;49.118;12.146;2022-11-04T04:19:49;42.58;;;19.63;;
62024;SDS011;47978;49.118;12.146;2022-11-04T04:22:19;20.58;;;10.40;;
62024;SDS011;47978;49.118;12.146;2022-11-04T04:24:50;16.95;;;8.65;;
62024;SDS011;47978;49.118;12.146;2022-11-04T04:27:20;47.10;;;25.70;;
62024;SDS011;47978;49.118;12.146;2022-11-04T04:29:48;34.90;;;20.27;;
62024;SDS011;47978;49.118;12.146;2022-11-04T04:32:17;24.63;;;12.13;;
62024;SDS011;47978;49.118;12.146;2022-11-04T04:34:48;10.18;;;5.55;;
62024;SDS011;47978;49.118;12.146;2022-11-04T04:37:16;7.78;;;5.38;;
62024;SDS011;47978;49.118;12.146;2022-11-04T04:39:46;13.85;;;5.50;;
62024;SDS011;47978;49.118;12.146;2022-11-04T04:42:15;9.88;;;6.85;;
62024;SDS011;47978;49.118;12.146;2022-11-04T04:44:42;5.70;;;4.28;;
62024;SDS011;47978;49.118;12.146;2022-11-04T04:47:09;5.55;;;4.38;;
62024;SDS011;47978;49.118;12.146;2022-11-04T04:49:49;8.85;;;5.05;;
62024;SDS011;47978;49.118;12.146;2022-11-04T04:52:15;7.10;;;4.43;;
62024;SDS011;47978;49.118;12.146;2022-11-04T04:54:42;7.10;;;5.07;;
62024;SDS011;47978;49.118;12.146;2022-11-04T04:57:09;7.97;;;5.70;;
62024;SDS011;47978;49.118;12.146;2022-11-04T04:59:36;9.35;;;4.35;;
62024;SDS011;47978;49.118;12.146;2022-11-04T05:02:02;6.30;;;4.43;;
62024;SDS011;47978;49.118;12.146;2022-11-04T05:04:29;6.75;;;4.53;;
62024;SDS011;47978;49.118;12.146;2022-11-04T05:06:57;6.72;;;3.95;;
62024;SDS011;47978;49.118;12.146;2022-11-04T05:09:24;4.95;;;3.88;;
62024;SDS011;47978;49.118;12.146;2022-11-04T05:11:50;6.32;;;3.60;;
62024;SDS011;47978;49.118;12.146;2022-11-04T05:14:17;4.60;;;3.03;;
62024;SDS011;47978;49.118;12.146;2022-11-04T05:16:43;7.45;;;3.60;;
62024;SDS011;47978;49.118;12.146;2022-11-04T05:19:10;7.32;;;3.85;;
62024;SDS011;47978;49.118;12.146;2022-11-04T05:21:37;8.15;;;3.45;;
62024;SDS011;47978;49.118;12.146;2022-11-04T05:24:05;6.22;;;3.72;;
62024;SDS011;47978;49.118;12.146;2022-11-04T05:26:32;5.53;;;3.30;;
62024;SDS011;47978;49.118;12.146;2022-11-04T05:28:58;5.65;;;2.95;;
62024;SDS011;47978;49.118;12.146;2022-11-04T05:31:25;4.75;;;2.80;;
62024;SDS011;47978;49.118;12.146;2022-11-04T05:33:52;5.55;;;3.13;;
62024;SDS011;47978;49.118;12.146;2022-11-04T05:36:18;7.07;;;2.90;;
62024;SDS011;47978;49.118;12.146;2022-11-04T05:38:48;3.70;;;2.70;;
62024;SDS011;47978;49.118;12.146;2022-11-04T05:41:17;7.53;;;2.83;;
62024;SDS011;47978;49.118;12.146;2022-11-04T05:43:44;4.85;;;2.60;;
62024;SDS011;47978;49.118;12.146;2022-11-04T05:46:11;5.05;;;3.00;;
62024;SDS011;47978;49.118;12.146;2022-11-04T05:48:37;10.85;;;3.53;;
62024;SDS011;47978;49.118;12.146;2022-11-04T05:51:06;6.40;;;2.65;;
62024;SDS011;47978;49.118;12.146;2022-11-04T05:53:32;14.27;;;2.75;;
62024;SDS011;47978;49.118;12.146;2022-11-04T05:55:59;6.35;;;2.97;;
62024;SDS011;47978;49.118;12.146;2022-11-04T05:58:27;4.28;;;2.85;;
62024;SDS011;47978;49.118;12.146;2022-11-04T06:00:53;3.17;;;2.10;;
62024;SDS011;47978;49.118;12.146;2022-11-04T06:03:20;4.68;;;2.25;;
62024;SDS011;47978;49.118;12.146;2022-11-04T06:05:46;4.20;;;2.03;;
62024;SDS011;47978;49.118;12.146;2022-11-04T06:08:13;7.82;;;2.58;;
62024;SDS011;47978;49.118;12.146;2022-11-04T06:10:39;5.95;;;2.70;;
62024;SDS011;47978;49.118;12.146;2022-11-04T06:13:08;6.70;;;2.35;;
62024;SDS011;47978;49.118;12.146;2022-11-04T06:15:36;5.70;;;2.35;;
62024;SDS011;47978;49.118;12.146;2022-11-04T06:18:02;6.38;;;2.83;;
62024;SDS011;47978;49.118;12.146;2022-11-04T06:20:29;4.05;;;2.08;;
62024;SDS011;47978;49.118;12.146;2022-11-04T06:22:55;5.93;;;2.20;;
62024;SDS011;47978;49.118;12.146;2022-11-04T06:25:22;4.32;;;2.25;;
62024;SDS011;47978;49.118;12.146;2022-11-04T06:27:48;5.05;;;2.00;;
62024;SDS011;47978;49.118;12.146;2022-11-04T06:30:15;3.47;;;2.17;;
62024;SDS011;47978;49.118;12.146;2022-11-04T06:32:43;5.10;;;2.28;;
62024;SDS011;47978;49.118;12.146;2022-11-04T06:35:10;3.45;;;1.85;;
62024;SDS011;47978;49.118;12.146;2022-11-04T06:37:36;4.43;;;2.05;;
62024;SDS011;47978;49.118;12.146;2022-11-04T06:40:03;3.97;;;2.10;;
62024;SDS011;47978;49.118;12.146;2022-11-04T06:42:30;5.15;;;1.98;;
62024;SDS011;47978;49.118;12.146;2022-11-04T06:44:57;4.95;;;2.17;;
62024;SDS011;47978;49.118;12.146;2022-11-04T06:47:23;2.60;;;1.70;;
62024;SDS011;47978;49.118;12.146;2022-11-04T06:49:51;2.97;;;1.83;;
62024;SDS011;47978;49.118;12.146;2022-11-04T06:52:18;4.97;;;1.52;;
62024;SDS011;47978;49.118;12.146;2022-11-04T06:54:44;4.03;;;2.10;;
62024;SDS011;47978;49.118;12.146;2022-11-04T06:57:11;3.00;;;1.88;;
62024;SDS011;47978;49.118;12.146;2022-11-04T06:59:38;3.85;;;1.90;;
62024;SDS011;47978;49.118;12.146;2022-11-04T07:02:05;2.58;;;1.70;;
62024;SDS011;47978;49.118;12.146;2022-11-04T07:04:31;3.85;;;2.58;;
62024;SDS011;47978;49.118;12.146;2022-11-04T07:06:59;3.50;;;2.22;;
62024;SDS011;47978;49.118;12.146;2022-11-04T07:09:26;2.72;;;1.85;;
62024;SDS011;47978;49.118;12.146;2022-11-04T07:11:52;4.68;;;2.05;;
62024;SDS011;47978;49.118;12.146;2022-11-04T07:14:19;2.25;;;1.60;;
62024;SDS011;47978;49.118;12.146;2022-11-04T07:16:48;3.58;;;1.75;;
62024;SDS011;47978;49.118;12.146;2022-11-04T07:19:15;3.92;;;1.50;;
62024;SDS011;47978;49.118;12.146;2022-11-04T07:21:41;2.42;;;1.80;;
62024;SDS011;47978;49.118;12.146;2022-11-04T07:24:09;3.47;;;1.55;;
62024;SDS011;47978;49.118;12.146;2022-11-04T07:26:36;5.30;;;1.73;;
62024;SDS011;47978;49.118;12.146;2022-11-04T07:29:02;4.90;;;1.63;;
62024;SDS011;47978;49.118;12.146;2022-11-04T07:31:29;2.67;;;1.70;;
62024;SDS011;47978;49.118;12.146;2022-11-04T07:33:56;4.35;;;1.90;;
62024;SDS011;47978;49.118;12.146;2022-11-04T07:36:22;2.75;;;1.75;;
62024;SDS011;47978;49.118;12.146;2022-11-04T07:38:49;2.60;;;1.60;;
62024;SDS011;47978;49.118;12.146;2022-11-04T07:41:17;5.25;;;1.85;;
62024;SDS011;47978;49.118;12.146;2022-11-04T07:43:47;3.33;;;1.90;;
62024;SDS011;47978;49.118;12.146;2022-11-04T07:46:14;2.45;;;1.63;;
62024;SDS011;47978;49.118;12.146;2022-11-04T07:48:40;4.03;;;1.83;;
62024;SDS011;47978;49.118;12.146;2022-11-04T07:51:08;2.45;;;1.60;;
62024;SDS011;47978;49.118;12.146;2022-11-04T07:53:36;2.25;;;1.63;;
62024;SDS011;47978;49.118;12.146;2022-11-04T07:56:03;3.53;;;1.42;;
62024;SDS011;47978;49.118;12.146;2022-11-04T07:58:32;2.10;;;1.23;;
62024;SDS011;47978;49.118;12.146;2022-11-04T08:01:00;2.45;;;1.70;;
62024;SDS011;47978;49.118;12.146;2022-11-04T08:03:28;3.67;;;1.80;;
62024;SDS011;47978;49.118;12.146;2022-11-04T08:05:55;5.55;;;2.08;;
62024;SDS011;47978;49.118;12.146;2022-11-04T08:08:22;3.33;;;1.90;;
62024;SDS011;47978;49.118;12.146;2022-11-04T08:10:52;2.30;;;1.50;;
62024;SDS011;47978;49.118;12.146;2022-11-04T08:13:19;2.65;;;1.60;;
62024;SDS011;47978;49.118;12.146;2022-11-04T08:15:47;2.92;;;1.90;;
62024;SDS011;47978;49.118;12.146;2022-11-04T08:18:14;3.22;;;1.50;;
62024;SDS011;47978;49.118;12.146;2022-11-04T08:20:45;5.03;;;2.00;;
62024;SDS011;47978;49.118;12.146;2022-11-04T08:23:12;4.90;;;2.10;;
62024;SDS011;47978;49.118;12.146;2022-11-04T08:25:39;3.50;;;2.45;;
62024;SDS011;47978;49.118;12.146;2022-11-04T08:28:05;4.63;;;3.25;;
62024;SDS011;47978;49.118;12.146;2022-11-04T08:30:32;5.53;;;3.22;;
62024;SDS011;47978;49.118;12.146;2022-11-04T08:33:00;6.70;;;3.40;;
62024;SDS011;47978;49.118;12.146;2022-11-04T08:35:26;5.20;;;2.72;;
62024;SDS011;47978;49.118;12.146;2022-11-04T08:37:53;4.55;;;2.45;;
62024;SDS011;47978;49.118;12.146;2022-11-04T08:40:19;3.33;;;2.28;;
62024;SDS011;47978;49.118;12.146;2022-11-04T08:42:46;4.15;;;2.53;;
62024;SDS011;47978;49.118;12.146;2022-11-04T08:45:13;6.47;;;2.75;;
62024;SDS011;47978;49.118;12.146;2022-11-04T08:47:39;4.03;;;2.80;;
62024;SDS011;47978;49.118;12.146;2022-11-04T08:50:07;3.47;;;2.55;;
62024;SDS011;47978;49.118;12.146;2022-11-04T08:52:34;4.35;;;2.40;;
62024;SDS011;47978;49.118;12.146;2022-11-04T08:55:01;12.32;;;3.53;;
62024;SDS011;47978;49.118;12.146;2022-11-04T08:57:27;4.00;;;2.60;;
62024;SDS011;47978;49.118;12.146;2022-11-04T08:59:54;4.25;;;2.38;;
62024;SDS011;47978;49.118;12.146;2022-11-04T09:02:20;4.88;;;2.67;;
62024;SDS011;47978;49.118;12.146;2022-11-04T09:04:47;4.95;;;2.50;;
62024;SDS011;47978;49.118;12.146;2022-11-04T09:07:15;7.22;;;3.20;;
62024;SDS011;47978;49.118;12.146;2022-11-04T09:09:41;5.88;;;2.85;;
62024;SDS011;47978;49.118;12.146;2022-11-04T09:12:08;5.03;;;2.85;;
62024;SDS011;47978;49.118;12.146;2022-11-04T09:14:35;4.05;;;2.47;;
62024;SDS011;47978;49.118;12.146;2022-11-04T09:17:02;7.43;;;2.75;;
62024;SDS011;47978;49.118;12.146;2022-11-04T09:19:28;7.88;;;2.67;;
62024;SDS011;47978;49.118;12.146;2022-11-04T09:21:55;5.60;;;3.08;;
62024;SDS011;47978;49.118;12.146;2022-11-04T09:24:23;3.45;;;2.30;;
62024;SDS011;47978;49.118;12.146;2022-11-04T09:26:49;5.70;;;2.38;;
62024;SDS011;47978;49.118;12.146;2022-11-04T09:29:16;2.60;;;1.98;;
62024;SDS011;47978;49.118;12.146;2022-11-04T09:31:42;3.30;;;2.20;;
62024;SDS011;47978;49.118;12.146;2022-11-04T09:34:09;3.75;;;2.00;;
62024;SDS011;47978;49.118;12.146;2022-11-04T09:36:35;4.95;;;2.55;;
62024;SDS011;47978;49.118;12.146;2022-11-04T09:39:02;7.55;;;3.30;;
62024;SDS011;47978;49.118;12.146;2022-11-04T09:41:37;5.65;;;3.03;;
62024;SDS011;47978;49.118;12.146;2022-11-04T09:44:14;5.10;;;2.50;;
62024;SDS011;47978;49.118;12.146;2022-11-04T09:46:48;7.05;;;2.50;;
62024;SDS011;47978;49.118;12.146;2022-11-04T09:49:16;5.07;;;2.67;;
62024;SDS011;47978;49.118;12.146;2022-11-04T09:51:43;5.57;;;3.05;;
62024;SDS011;47978;49.118;12.146;2022-11-04T09:54:21;7.47;;;2.83;;
62024;SDS011;47978;49.118;12.146;2022-11-04T09:56:51;3.22;;;1.98;;
62024;SDS011;47978;49.118;12.146;2022-11-04T09:59:23;6.38;;;2.45;;
62024;SDS011;47978;49.118;12.146;2022-11-04T10:04:26;7.40;;;3.40;;
62024;SDS011;47978;49.118;12.146;2022-11-04T10:07:07;4.95;;;3.40;;
62024;SDS011;47978;49.118;12.146;2022-11-04T10:09:48;4.15;;;2.50;;
62024;SDS011;47978;49.118;12.146;2022-11-04T10:12:30;6.15;;;3.70;;
62024;SDS011;47978;49.118;12.146;2022-11-04T10:15:26;6.15;;;3.55;;
62024;SDS011;47978;49.118;12.146;2022-11-04T10:18:11;3.95;;;2.38;;
62024;SDS011;47978;49.118;12.146;2022-11-04T10:20:49;5.83;;;2.50;;
62024;SDS011;47978;49.118;12.146;2022-11-04T10:23:27;3.38;;;2.17;;
62024;SDS011;47978;49.118;12.146;2022-11-04T10:26:00;4.50;;;3.17;;
62024;SDS011;47978;49.118;12.146;2022-11-04T10:28:37;4.40;;;2.72;;
62024;SDS011;47978;49.118;12.146;2022-11-04T10:33:36;3.15;;;2.42;;
62024;SDS011;47978;49.118;12.146;2022-11-04T10:36:09;3.22;;;2.17;;
62024;SDS011;47978;49.118;12.146;2022-11-04T10:38:37;4.20;;;2.20;;
62024;SDS011;47978;49.118;12.146;2022-11-04T10:41:22;6.07;;;2.70;;
62024;SDS011;47978;49.118;12.146;2022-11-04T10:43:55;3.83;;;1.70;;
62024;SDS011;47978;49.118;12.146;2022-11-04T10:46:28;3.15;;;1.80;;
62024;SDS011;47978;49.118;12.146;2022-11-04T10:49:04;7.07;;;2.25;;
62024;SDS011;47978;49.118;12.146;2022-11-04T10:51:49;4.38;;;1.70;;
62024;SDS011;47978;49.118;12.146;2022-11-04T10:54:16;6.70;;;1.70;;
62024;SDS011;47978;49.118;12.146;2022-11-04T10:56:44;4.15;;;1.92;;
62024;SDS011;47978;49.118;12.146;2022-11-04T10:59:17;6.15;;;2.20;;
62024;SDS011;47978;49.118;12.146;2022-11-04T11:01:49;3.60;;;1.85;;
62024;SDS011;47978;49.118;12.146;2022-11-04T11:04:25;6.35;;;2.20;;
62024;SDS011;47978;49.118;12.146;2022-11-04T11:06:53;8.68;;;2.10;;
62024;SDS011;47978;49.118;12.146;2022-11-04T11:09:22;3.95;;;1.98;;
62024;SDS011;47978;49.118;12.146;2022-11-04T11:11:51;3.10;;;1.83;;
62024;SDS011;47978;49.118;12.146;2022-11-04T11:14:30;3.90;;;1.95;;
62024;SDS011;47978;49.118;12.146;2022-11-04T11:19:45;3.40;;;2.03;;
62024;SDS011;47978;49.118;12.146;2022-11-04T11:22:26;4.78;;;1.95;;
62024;SDS011;47978;49.118;12.146;2022-11-04T11:27:50;3.78;;;2.10;;
62024;SDS011;47978;49.118;12.146;2022-11-04T11:30:24;2.78;;;1.88;;
62024;SDS011;47978;49.118;12.146;2022-11-04T11:32:53;3.65;;;2.20;;
62024;SDS011;47978;49.118;12.146;2022-11-04T11:35:24;4.82;;;2.22;;
62024;SDS011;47978;49.118;12.146;2022-11-04T11:40:22;5.90;;;2.30;;
62024;SDS011;47978;49.118;12.146;2022-11-04T11:42:50;8.35;;;2.88;;
62024;SDS011;47978;49.118;12.146;2022-11-04T11:45:18;6.88;;;2.80;;
62024;SDS011;47978;49.118;12.146;2022-11-04T11:47:47;5.05;;;2.50;;
62024;SDS011;47978;49.118;12.146;2022-11-04T11:50:14;4.53;;;2.65;;
62024;SDS011;47978;49.118;12.146;2022-11-04T11:52:42;5.40;;;2.80;;
62024;SDS011;47978;49.118;12.146;2022-11-04T11:55:11;4.93;;;2.78;;
62024;SDS011;47978;49.118;12.146;2022-11-04T11:57:45;5.35;;;2.30;;
62024;SDS011;47978;49.118;12.146;2022-11-04T12:00:37;4.70;;;2.45;;
62024;SDS011;47978;49.118;12.146;2022-11-04T12:03:18;6.85;;;3.13;;
62024;SDS011;47978;49.118;12.146;2022-11-04T12:05:53;5.60;;;2.80;;
62024;SDS011;47978;49.118;12.146;2022-11-04T12:08:45;4.60;;;2.20;;
62024;SDS011;47978;49.118;12.146;2022-11-04T12:11:42;6.30;;;2.50;;
62024;SDS011;47978;49.118;12.146;2022-11-04T12:14:18;4.63;;;2.40;;
62024;SDS011;47978;49.118;12.146;2022-11-04T12:16:55;5.82;;;2.97;;
62024;SDS011;47978;49.118;12.146;2022-11-04T12:19:34;6.32;;;2.72;;
62024;SDS011;47978;49.118;12.146;2022-11-04T12:22:13;5.93;;;3.30;;
62024;SDS011;47978;49.118;12.146;2022-11-04T12:24:49;6.32;;;3.60;;
62024;SDS011;47978;49.118;12.146;2022-11-04T12:27:25;8.48;;;3.83;;
62024;SDS011;47978;49.118;12.146;2022-11-04T12:30:04;5.93;;;3.25;;
62024;SDS011;47978;49.118;12.146;2022-11-04T12:32:37;5.53;;;3.15;;
62024;SDS011;47978;49.118;12.146;2022-11-04T12:35:18;6.03;;;2.63;;
62024;SDS011;47978;49.118;12.146;2022-11-04T12:37:56;5.93;;;2.90;;
62024;SDS011;47978;49.118;12.146;2022-11-04T12:40:34;11.80;;;3.35;;
62024;SDS011;47978;49.118;12.146;2022-11-04T12:43:10;6.97;;;3.63;;
62024;SDS011;47978;49.118;12.146;2022-11-04T12:45:51;6.32;;;3.22;;
62024;SDS011;47978;49.118;12.146;2022-11-04T12:48:37;5.18;;;3.38;;
62024;SDS011;47978;49.118;12.146;2022-11-04T12:51:26;11.02;;;3.45;;
62024;SDS011;47978;49.118;12.146;2022-11-04T12:54:14;5.82;;;3.55;;
62024;SDS011;47978;49.118;12.146;2022-11-04T12:56:50;7.43;;;3.80;;
62024;SDS011;47978;49.118;12.146;2022-11-04T12:59:31;6.45;;;4.03;;
62024;SDS011;47978;49.118;12.146;2022-11-04T13:02:13;5.93;;;3.30;;
62024;SDS011;47978;49.118;12.146;2022-11-04T13:04:45;6.57;;;3.47;;
62024;SDS011;47978;49.118;12.146;2022-11-04T13:07:18;9.10;;;3.75;;
62024;SDS011;47978;49.118;12.146;2022-11-04T13:09:48;5.00;;;2.72;;
62024;SDS011;47978;49.118;12.146;2022-11-04T13:12:20;6.28;;;3.40;;
62024;SDS011;47978;49.118;12.146;2022-11-04T13:14:49;7.55;;;4.45;;
62024;SDS011;47978;49.118;12.146;2022-11-04T13:17:21;8.10;;;3.97;;
62024;SDS011;47978;49.118;12.146;2022-11-04T13:19:52;8.20;;;5.63;;
62024;SDS011;47978;49.118;12.146;2022-11-04T13:22:23;8.38;;;4.68;;
62024;SDS011;47978;49.118;12.146;2022-11-04T13:24:53;6.10;;;3.90;;
62024;SDS011;47978;49.118;12.146;2022-11-04T13:27:24;6.13;;;2.20;;
62024;SDS011;47978;49.118;12.146;2022-11-04T13:29:56;3.03;;;1.77;;
62024;SDS011;47978;49.118;12.146;2022-11-04T13:32:30;6.45;;;1.90;;
62024;SDS011;47978;49.118;12.146;2022-11-04T13:35:03;8.60;;;2.45;;
62024;SDS011;47978;49.118;12.146;2022-11-04T13:37:40;4.43;;;2.90;;
62024;SDS011;47978;49.118;12.146;2022-11-04T13:40:15;5.43;;;2.50;;
62024;SDS011;47978;49.118;12.146;2022-11-04T13:42:57;4.63;;;2.10;;
62024;SDS011;47978;49.118;12.146;2022-11-04T13:45:43;5.90;;;2.42;;
62024;SDS011;47978;49.118;12.146;2022-11-04T13:48:14;6.50;;;2.97;;
62024;SDS011;47978;49.118;12.146;2022-11-04T13:50:44;3.38;;;2.95;;
62024;SDS011;47978;49.118;12.146;2022-11-04T13:53:22;5.45;;;2.25;;
62024;SDS011;47978;49.118;12.146;2022-11-04T13:56:07;3.45;;;2.33;;
62024;SDS011;47978;49.118;12.146;2022-11-04T13:58:55;4.57;;;2.25;;
62024;SDS011;47978;49.118;12.146;2022-11-04T14:01:26;7.13;;;2.57;;
62024;SDS011;47978;49.118;12.146;2022-11-04T14:03:54;4.05;;;2.17;;
62024;SDS011;47978;49.118;12.146;2022-11-04T14:06:45;4.93;;;2.40;;
62024;SDS011;47978;49.118;12.146;2022-11-04T14:09:33;20.52;;;10.38;;
62024;SDS011;47978;49.118;12.146;2022-11-04T14:12:24;7.07;;;3.22;;
62024;SDS011;47978;49.118;12.146;2022-11-04T14:14:53;7.35;;;4.18;;
62024;SDS011;47978;49.118;12.146;2022-11-04T14:20:38;8.45;;;3.67;;
62024;SDS011;47978;49.118;12.146;2022-11-04T14:23:32;19.38;;;6.88;;
62024;SDS011;47978;49.118;12.146;2022-11-04T14:26:03;8.50;;;3.13;;
62024;SDS011;47978;49.118;12.146;2022-11-04T14:28:31;6.28;;;3.63;;
62024;SDS011;47978;49.118;12.146;2022-11-04T14:30:59;10.70;;;4.53;;
62024;SDS011;47978;49.118;12.146;2022-11-04T14:33:32;5.95;;;2.92;;
62024;SDS011;47978;49.118;12.146;2022-11-04T14:38:54;7.60;;;4.47;;
62024;SDS011;47978;49.118;12.146;2022-11-04T14:41:30;10.73;;;3.72;;
62024;SDS011;47978;49.118;12.146;2022-11-04T14:44:12;16.20;;;8.50;;
62024;SDS011;47978;49.118;12.146;2022-11-04T14:46:44;15.38;;;5.82;;
62024;SDS011;47978;49.118;12.146;2022-11-04T14:49:23;25.98;;;10.35;;
62024;SDS011;47978;49.118;12.146;2022-11-04T14:52:00;22.13;;;9.68;;
62024;SDS011;47978;49.118;12.146;2022-11-04T14:54:29;9.95;;;3.63;;
62024;SDS011;47978;49.118;12.146;2022-11-04T14:57:08;6.60;;;3.55;;
62024;SDS011;47978;49.118;12.146;2022-11-04T14:59:39;9.07;;;4.13;;
62024;SDS011;47978;49.118;12.146;2022-11-04T15:02:10;5.78;;;3.40;;
62024;SDS011;47978;49.118;12.146;2022-11-04T15:04:44;30.58;;;17.33;;
62024;SDS011;47978;49.118;12.146;2022-11-04T15:07:21;12.82;;;6.32;;
62024;SDS011;47978;49.118;12.146;2022-11-04T15:09:57;8.48;;;3.90;;
62024;SDS011;47978;49.118;12.146;2022-11-04T15:12:25;11.63;;;6.15;;
62024;SDS011;47978;49.118;12.146;2022-11-04T15:14:52;7.07;;;5.90;;
62024;SDS011;47978;49.118;12.146;2022-11-04T15:17:19;9.02;;;5.40;;